Time;durP1;ratioP1;P1;durP2;ratioP2;P2;SDS_P1;SDS_P2;PMS_P1;PMS_P2;Temp;Humidity;BMP_temperature;BMP_pressure;BME280_temperature;BME280_humidity;BME280_pressure;Samples;Min_cycle;Max_cycle;Signal;HPM_P1;HPM_P2
2021/03/02 00:00:51;;;;;;;11.18;7.05;;;;;;;8.14;52.94;101459.38;5099386;28;20165;-69
2021/03/02 00:03:18;;;;;;;7.63;6.38;;;;;;;8.11;53.30;101457.25;5099814;28;20055;-68
2021/03/02 00:05:47;;;;;;;7.72;6.60;;;;;;;8.14;52.63;101459.38;5099096;28;20027;-69
2021/03/02 00:08:14;;;;;;;9.05;6.55;;;;;;;8.22;52.17;101455.84;5099009;28;20034;-70
2021/03/02 00:10:42;;;;;;;8.98;6.35;;;;;;;8.06;52.86;101451.81;5099064;28;20023;-69
2021/03/02 00:13:11;;;;;;;8.48;6.53;;;;;;;8.05;51.78;101455.75;5098901;28;20114;-69
2021/03/02 00:15:38;;;;;;;7.53;6.18;;;;;;;8.08;50.81;101453.13;5099184;28;20024;-68
2021/03/02 00:18:06;;;;;;;10.38;6.60;;;;;;;8.03;52.04;101466.31;5098833;28;20031;-69
2021/03/02 00:20:35;;;;;;;7.70;6.60;;;;;;;7.94;51.86;101459.91;5081181;28;20129;-69
2021/03/02 00:23:16;;;;;;;7.85;6.60;;;;;;;7.92;52.80;101460.19;5099213;28;20105;-68
2021/03/02 00:25:47;;;;;;;12.68;7.72;;;;;;;7.92;52.56;101456.59;5099265;28;20039;-69
2021/03/02 00:28:14;;;;;;;9.70;5.93;;;;;;;7.94;50.90;101454.34;5098756;28;20039;-69
2021/03/02 00:30:41;;;;;;;10.32;7.18;;;;;;;8.00;50.67;101464.19;5099517;28;20071;-69
2021/03/02 00:33:09;;;;;;;8.80;6.53;;;;;;;7.99;50.34;101471.69;5099484;28;20024;-70
2021/03/02 00:35:35;;;;;;;8.30;6.50;;;;;;;8.01;49.36;101471.34;5099492;28;20122;-69
2021/03/02 00:38:04;;;;;;;8.23;6.25;;;;;;;8.00;50.31;101470.53;5099037;28;20044;-68
2021/03/02 00:40:30;;;;;;;8.25;6.22;;;;;;;8.04;49.67;101476.25;5098398;28;20019;-69
2021/03/02 00:42:57;;;;;;;8.85;6.07;;;;;;;7.91;49.16;101471.59;5098378;28;20019;-68
2021/03/02 00:45:23;;;;;;;7.60;5.53;;;;;;;7.92;49.55;101464.91;5116560;28;20031;-69
2021/03/02 00:47:50;;;;;;;6.85;5.40;;;;;;;8.06;47.81;101474.00;5099120;28;20380;-69
2021/03/02 00:50:15;;;;;;;7.30;5.38;;;;;;;7.97;47.39;101471.16;5098257;28;20035;-68
2021/03/02 00:52:41;;;;;;;8.25;5.97;;;;;;;7.99;48.23;101470.84;5097149;28;20032;-69
2021/03/02 00:55:07;;;;;;;6.43;5.55;;;;;;;7.94;50.69;101471.81;5097987;28;20088;-68
2021/03/02 00:57:33;;;;;;;7.10;6.22;;;;;;;7.88;50.47;101468.34;5098562;28;20032;-68
2021/03/02 00:59:59;;;;;;;8.32;5.25;;;;;;;7.87;50.08;101468.63;5098286;28;20032;-68
2021/03/02 01:02:25;;;;;;;6.72;5.45;;;;;;;7.80;48.97;101471.84;5098222;28;20027;-68
2021/03/02 01:04:51;;;;;;;6.60;5.50;;;;;;;7.73;49.02;101468.69;5081352;28;20066;-69
2021/03/02 01:07:17;;;;;;;8.45;5.50;;;;;;;7.77;49.38;101466.09;5098449;28;20124;-68
2021/03/02 01:09:42;;;;;;;8.55;5.80;;;;;;;7.70;48.79;101466.53;5097836;28;20031;-69
2021/03/02 01:12:08;;;;;;;8.95;6.07;;;;;;;7.76;47.48;101470.81;5097783;28;20024;-68
2021/03/02 01:14:34;;;;;;;8.38;6.15;;;;;;;7.63;49.20;101466.16;5098034;28;20028;-70
2021/03/02 01:16:59;;;;;;;8.52;6.85;;;;;;;7.59;49.06;101470.66;5097707;28;20046;-68
2021/03/02 01:19:25;;;;;;;10.15;5.85;;;;;;;7.54;50.88;101465.25;5094097;28;20076;-69
2021/03/02 01:21:52;;;;;;;10.13;6.50;;;;;;;7.57;49.84;101470.16;5094113;28;20473;-68
2021/03/02 01:24:17;;;;;;;6.60;5.07;;;;;;;7.48;49.37;101466.50;5094198;28;20111;-68
2021/03/02 01:26:43;;;;;;;6.22;5.18;;;;;;;7.54;49.39;101468.81;5094704;28;20115;-69
2021/03/02 01:29:09;;;;;;;5.75;4.90;;;;;;;7.46;50.96;101464.03;5094388;28;20043;-68
2021/03/02 01:31:34;;;;;;;5.47;4.10;;;;;;;7.47;49.06;101462.09;5094016;28;20120;-69
2021/03/02 01:34:03;;;;;;;7.78;4.88;;;;;;;7.53;49.62;101458.88;5094272;28;20061;-68
2021/03/02 01:36:28;;;;;;;4.85;3.70;;;;;;;7.52;47.76;101453.66;5094824;28;20031;-69
2021/03/02 01:38:54;;;;;;;4.47;4.07;;;;;;;7.53;47.75;101456.13;5093915;28;20462;-69
2021/03/02 01:41:20;;;;;;;4.72;3.65;;;;;;;7.49;48.35;101454.28;5094345;28;20032;-68
2021/03/02 01:43:45;;;;;;;6.57;4.15;;;;;;;7.54;47.46;101451.38;5094106;28;20106;-68
2021/03/02 01:46:12;;;;;;;4.90;4.07;;;;;;;7.58;47.91;101453.22;5094038;28;20025;-69
2021/03/02 01:48:39;;;;;;;7.72;4.53;;;;;;;7.61;46.96;101451.78;5093982;28;20454;-68
2021/03/02 01:51:06;;;;;;;6.80;4.03;;;;;;;7.59;47.79;101451.28;5093671;28;20027;-68
2021/03/02 01:53:32;;;;;;;6.30;4.88;;;;;;;7.59;46.69;101451.28;5094181;28;20027;-68
2021/03/02 01:55:58;;;;;;;5.05;4.55;;;;;;;7.57;46.91;101450.78;5094134;28;20023;-69
2021/03/02 01:58:28;;;;;;;5.40;4.60;;;;;;;7.53;47.40;101456.13;5076984;28;20564;-69
2021/03/02 02:00:56;;;;;;;7.35;5.15;;;;;;;7.61;46.14;101449.00;5093941;28;20363;-69
2021/03/02 02:03:27;;;;;;;6.65;5.32;;;;;;;7.25;47.06;101399.97;5094015;28;20035;-68
2021/03/02 02:06:10;;;;;;;7.68;5.68;;;;;;;7.42;48.24;101440.03;5093092;28;20028;-68
2021/03/02 02:08:45;;;;;;;7.70;5.00;;;;;;;7.48;47.61;101458.19;5093614;28;20425;-68
2021/03/02 02:11:33;;;;;;;7.82;4.57;;;;;;;7.28;48.14;101432.56;5094156;28;20418;-68
2021/03/02 02:14:28;;;;;;;6.05;4.85;;;;;;;7.46;46.91;101449.38;5044405;28;20032;-69
2021/03/02 02:16:56;;;;;;;5.47;4.72;;;;;;;7.54;46.79;101449.44;5048500;28;20032;-69
2021/03/02 02:19:45;;;;;;;6.60;4.75;;;;;;;7.60;45.60;101452.91;5093122;28;20398;-69
2021/03/02 02:22:22;;;;;;;5.40;4.45;;;;;;;7.22;44.50;101402.53;5094333;28;20024;-68
2021/03/02 02:25:14;;;;;;;5.90;4.03;;;;;;;7.54;44.49;101452.22;5093382;28;20433;-68
2021/03/02 02:27:43;;;;;;;4.72;3.67;;;;;;;7.50;44.48;101450.38;5093035;28;20027;-68
2021/03/02 02:30:10;;;;;;;5.78;4.03;;;;;;;7.66;44.45;101459.97;5093274;28;20131;-68
2021/03/02 02:32:38;;;;;;;5.53;3.88;;;;;;;7.62;44.16;101461.75;5076842;28;20085;-69
2021/03/02 02:35:05;;;;;;;4.35;3.53;;;;;;;7.64;43.87;101456.69;5093193;28;20481;-68
2021/03/02 02:37:32;;;;;;;4.53;3.40;;;;;;;7.68;44.63;101463.25;5076784;28;20036;-68
2021/03/02 02:39:59;;;;;;;4.68;3.78;;;;;;;7.73;43.67;101459.56;5092766;28;20028;-68
2021/03/02 02:42:26;;;;;;;5.57;3.90;;;;;;;7.62;42.55;101464.50;5092893;28;20024;-68
2021/03/02 02:44:54;;;;;;;5.38;3.88;;;;;;;7.65;43.40;101466.66;5092761;28;20020;-68
2021/03/02 02:47:20;;;;;;;5.28;3.67;;;;;;;7.62;43.66;101464.50;5092778;28;20024;-68
2021/03/02 02:49:47;;;;;;;6.03;3.67;;;;;;;7.65;44.93;101472.19;5093275;28;20422;-69
2021/03/02 02:52:17;;;;;;;5.55;4.07;;;;;;;7.58;45.35;101457.94;5092827;28;20024;-69
2021/03/02 02:54:45;;;;;;;5.35;4.30;;;;;;;7.56;45.37;101461.03;5092980;28;20020;-69
2021/03/02 02:57:14;;;;;;;5.50;4.30;;;;;;;7.56;44.74;101461.03;5093115;28;20028;-69
2021/03/02 02:59:41;;;;;;;4.57;3.92;;;;;;;7.52;45.26;101461.97;5092906;28;20032;-68
2021/03/02 03:02:17;;;;;;;5.60;4.13;;;;;;;7.57;44.53;101473.75;5092509;28;20020;-68
2021/03/02 03:04:47;;;;;;;4.32;3.88;;;;;;;7.65;44.37;101474.94;5092568;28;20055;-69
2021/03/02 03:07:21;;;;;;;6.18;3.97;;;;;;;7.68;43.64;101466.03;5093141;28;20020;-68
2021/03/02 03:09:47;;;;;;;6.20;4.15;;;;;;;7.62;45.54;101472.81;5075895;28;20033;-69
2021/03/02 03:12:15;;;;;;;4.95;4.00;;;;;;;7.49;45.31;101471.72;5093080;28;20035;-69
2021/03/02 03:15:02;;;;;;;4.43;3.63;;;;;;;7.50;45.34;101473.34;5093296;28;20120;-69
2021/03/02 03:17:32;;;;;;;5.57;4.43;;;;;;;7.52;45.08;101473.06;5095130;28;20032;-68
2021/03/02 03:20:00;;;;;;;3.50;3.22;;;;;;;7.58;44.25;101469.84;5096440;28;20129;-68
2021/03/02 03:22:27;;;;;;;5.47;3.88;;;;;;;7.59;45.07;101482.56;5097826;28;20103;-69
2021/03/02 03:24:53;;;;;;;3.72;3.35;;;;;;;7.53;44.15;101474.69;5096763;28;20034;-68
2021/03/02 03:27:19;;;;;;;8.27;6.68;;;;;;;7.60;43.77;101477.84;5096515;28;20040;-68
2021/03/02 03:29:46;;;;;;;7.95;5.70;;;;;;;7.63;45.23;101480.00;5096760;28;20470;-68
2021/03/02 03:32:14;;;;;;;12.88;9.15;;;;;;;7.50;45.55;101484.41;5096354;28;20040;-69
2021/03/02 03:34:43;;;;;;;30.13;18.48;;;;;;;7.54;44.60;101484.63;5096301;28;20020;-68
2021/03/02 03:37:09;;;;;;;22.33;15.23;;;;;;;7.45;45.44;101487.28;5096413;28;20032;-69
2021/03/02 03:39:34;;;;;;;11.27;8.15;;;;;;;7.48;44.64;101491.41;5096500;28;20039;-69
2021/03/02 03:42:00;;;;;;;6.25;5.55;;;;;;;7.53;44.77;101477.44;5096118;28;20055;-68
2021/03/02 03:44:26;;;;;;;5.05;4.55;;;;;;;7.56;44.11;101490.66;5097002;28;20070;-69
2021/03/02 03:46:52;;;;;;;5.35;3.85;;;;;;;7.55;43.58;101466.88;5096123;28;20496;-69
2021/03/02 03:49:18;;;;;;;5.32;4.07;;;;;;;7.47;44.66;101487.81;5096065;28;20032;-68
2021/03/02 03:51:45;;;;;;;4.20;3.30;;;;;;;7.32;44.46;101488.97;5095977;28;20042;-71
2021/03/02 03:54:14;;;;;;;5.85;3.88;;;;;;;7.31;45.70;101490.09;5096530;28;20028;-68
2021/03/02 03:56:43;;;;;;;6.82;3.95;;;;;;;7.45;45.75;101486.47;5096161;28;20543;-70
2021/03/02 03:59:12;;;;;;;4.18;3.67;;;;;;;7.46;45.54;101496.44;5096156;28;20024;-68
2021/03/02 04:01:38;;;;;;;5.05;4.05;;;;;;;7.44;46.34;101493.16;5096421;28;20110;-68
2021/03/02 04:04:04;;;;;;;4.65;3.78;;;;;;;7.37;44.93;101484.47;5096293;28;20032;-68
2021/03/02 04:06:34;;;;;;;4.85;4.03;;;;;;;7.42;46.15;101507.31;5096305;28;20055;-69
2021/03/02 04:09:00;;;;;;;4.50;3.78;;;;;;;7.38;44.80;101503.53;5095633;28;20081;-68
2021/03/02 04:11:26;;;;;;;3.88;3.47;;;;;;;7.36;45.50;101500.25;5095608;28;20032;-68
2021/03/02 04:13:56;;;;;;;5.88;4.10;;;;;;;7.35;46.13;101515.22;5095845;28;20035;-68
2021/03/02 04:16:22;;;;;;;4.22;3.65;;;;;;;7.41;45.22;101508.44;5078963;28;20034;-68
2021/03/02 04:18:48;;;;;;;5.80;3.72;;;;;;;7.32;47.41;101519.41;5095253;28;20044;-68
2021/03/02 04:21:14;;;;;;;5.15;4.20;;;;;;;7.32;46.53;101522.19;5095348;28;20024;-68
2021/03/02 04:23:40;;;;;;;5.13;3.75;;;;;;;7.28;46.49;101518.38;5095652;28;20035;-68
2021/03/02 04:26:06;;;;;;;6.15;4.15;;;;;;;7.27;46.03;101518.72;5097097;28;20555;-68
2021/03/02 04:28:31;;;;;;;4.35;3.95;;;;;;;7.24;46.69;101519.31;5095061;28;20032;-68
2021/03/02 04:30:57;;;;;;;8.15;4.43;;;;;;;7.17;47.94;101518.91;5095000;28;20082;-69
2021/03/02 04:33:23;;;;;;;5.63;3.63;;;;;;;7.27;46.54;101513.16;5095526;28;20028;-69
2021/03/02 04:35:49;;;;;;;5.97;3.40;;;;;;;7.17;46.56;101522.50;5096971;28;20028;-68
2021/03/02 04:38:14;;;;;;;5.70;3.88;;;;;;;7.16;47.15;101523.63;5095082;28;20497;-69
2021/03/02 04:40:40;;;;;;;5.15;4.00;;;;;;;7.22;48.29;101527.94;5095584;28;20039;-68
2021/03/02 04:43:06;;;;;;;6.22;4.25;;;;;;;7.24;47.31;101536.75;5095032;28;20539;-69
2021/03/02 04:45:31;;;;;;;6.50;4.28;;;;;;;7.26;46.69;101522.59;5094987;28;20035;-68
2021/03/02 04:47:57;;;;;;;4.35;3.83;;;;;;;7.25;46.92;101527.34;5094913;28;20096;-69
2021/03/02 04:50:26;;;;;;;5.70;4.07;;;;;;;7.24;46.67;101530.38;5078828;28;20036;-69
2021/03/02 04:52:51;;;;;;;4.30;3.90;;;;;;;7.25;47.38;101532.88;5094858;28;20032;-69
2021/03/02 04:55:18;;;;;;;6.20;3.80;;;;;;;7.37;46.38;101528.75;5094772;28;20028;-69
2021/03/02 04:57:43;;;;;;;5.85;3.88;;;;;;;7.24;47.79;101536.75;5094999;28;20036;-68
2021/03/02 05:00:10;;;;;;;4.28;3.88;;;;;;;7.25;45.98;101538.41;5094958;28;20531;-68
2021/03/02 05:02:39;;;;;;;7.68;4.28;;;;;;;7.21;47.36;101542.09;5078127;28;20028;-68
2021/03/02 05:05:06;;;;;;;4.95;3.72;;;;;;;6.87;48.28;101512.88;5094554;28;20032;-68
2021/03/02 05:07:32;;;;;;;7.75;3.63;;;;;;;7.03;46.21;101541.03;5091331;28;20032;-69
2021/03/02 05:09:57;;;;;;;5.35;3.90;;;;;;;7.03;47.59;101549.34;5095027;28;20113;-68
2021/03/02 05:12:23;;;;;;;7.22;3.58;;;;;;;6.98;48.43;101549.47;5094120;28;20489;-68
2021/03/02 05:14:48;;;;;;;3.80;3.38;;;;;;;6.98;48.29;101549.47;5094973;28;20031;-68
2021/03/02 05:17:14;;;;;;;4.63;3.60;;;;;;;6.92;47.98;101542.34;5094617;28;20386;-68
2021/03/02 05:19:40;;;;;;;5.03;4.40;;;;;;;6.96;49.49;101552.50;5093987;28;20534;-68
2021/03/02 05:22:07;;;;;;;4.75;3.65;;;;;;;6.90;49.29;101547.38;5094241;28;20034;-68
2021/03/02 05:24:32;;;;;;;5.53;3.90;;;;;;;6.97;48.55;101542.25;5094223;28;20028;-69
2021/03/02 05:26:58;;;;;;;7.47;3.53;;;;;;;6.95;49.20;101550.06;5094493;28;20035;-68
2021/03/02 05:29:23;;;;;;;4.95;4.22;;;;;;;6.86;48.65;101551.88;5094663;28;20378;-68
2021/03/02 05:31:49;;;;;;;5.38;3.50;;;;;;;6.88;45.53;101544.13;5094614;28;20463;-69
2021/03/02 05:34:15;;;;;;;5.03;3.72;;;;;;;6.89;48.76;101548.50;5094024;28;20028;-68
2021/03/02 05:36:40;;;;;;;5.18;3.55;;;;;;;6.92;47.32;101556.19;5094256;28;20028;-68
2021/03/02 05:39:07;;;;;;;4.88;3.97;;;;;;;6.93;48.35;101546.78;5093301;28;20443;-69
2021/03/02 05:41:35;;;;;;;7.15;3.92;;;;;;;6.95;48.62;101558.34;5093774;28;20028;-68
2021/03/02 05:44:00;;;;;;;5.15;4.22;;;;;;;7.00;50.05;101563.81;5094369;28;20466;-69
2021/03/02 05:46:26;;;;;;;6.80;4.40;;;;;;;7.34;49.43;101564.22;5094101;28;20115;-68
2021/03/02 05:48:53;;;;;;;4.40;4.00;;;;;;;7.80;48.13;101566.03;5094265;28;20428;-68
2021/03/02 05:51:19;;;;;;;5.30;4.18;;;;;;;8.20;47.92;101563.47;5093728;28;20058;-68
2021/03/02 05:53:46;;;;;;;6.25;4.05;;;;;;;8.52;46.90;101547.75;5093669;28;20028;-70
2021/03/02 05:56:12;;;;;;;6.00;4.00;;;;;;;9.14;44.63;101568.03;5093166;28;20033;-69
2021/03/02 05:58:38;;;;;;;6.03;4.80;;;;;;;9.67;43.27;101577.38;5093611;28;20036;-69
2021/03/02 06:01:04;;;;;;;6.80;5.03;;;;;;;10.16;42.26;101578.13;5093675;28;20028;-69
2021/03/02 06:03:36;;;;;;;8.68;5.00;;;;;;;10.74;40.80;101571.25;5093453;28;20032;-69
2021/03/02 06:06:04;;;;;;;5.53;4.20;;;;;;;11.30;39.96;101577.66;5094672;28;20035;-69
2021/03/02 06:08:29;;;;;;;7.75;4.82;;;;;;;11.87;38.68;101591.16;5093620;28;20042;-69
2021/03/02 06:10:55;;;;;;;5.65;4.70;;;;;;;12.36;37.70;101591.47;5093329;28;20457;-69
2021/03/02 06:13:28;;;;;;;5.55;4.88;;;;;;;12.79;36.47;101590.28;5093254;28;20032;-70
2021/03/02 06:15:58;;;;;;;8.67;5.70;;;;;;;13.25;35.69;101591.91;5093449;28;20118;-69
2021/03/02 06:18:24;;;;;;;7.07;5.13;;;;;;;13.69;34.87;101585.78;5092921;28;20065;-71
2021/03/02 06:20:51;;;;;;;7.13;4.60;;;;;;;14.22;33.99;101586.63;5096434;28;20275;-69
2021/03/02 06:23:30;;;;;;;7.32;4.93;;;;;;;14.81;33.03;101594.41;5096795;28;20427;-69
2021/03/02 06:26:14;;;;;;;7.13;4.93;;;;;;;14.98;31.66;101608.09;5096536;28;20032;-70
2021/03/02 06:28:41;;;;;;;9.38;5.20;;;;;;;15.50;31.06;101611.84;5096494;28;20071;-70
2021/03/02 06:31:27;;;;;;;7.50;4.45;;;;;;;15.77;27.68;101598.94;5096964;28;20027;-70
2021/03/02 06:34:13;;;;;;;5.22;4.20;;;;;;;16.03;28.14;101617.97;5095816;28;20504;-69
2021/03/02 06:36:41;;;;;;;4.88;4.25;;;;;;;16.62;28.80;101628.97;5096532;28;20028;-67
2021/03/02 06:39:39;;;;;;;6.57;5.50;;;;;;;17.32;27.75;101632.75;5096620;28;20024;-70
2021/03/02 06:42:22;;;;;;;10.02;7.68;;;;;;;17.01;27.26;101632.59;5096196;28;20035;-70
2021/03/02 06:44:52;;;;;;;10.02;8.10;;;;;;;17.43;26.79;101628.94;5096282;28;20040;-70
2021/03/02 06:47:39;;;;;;;9.18;6.78;;;;;;;17.94;26.57;101636.25;5095994;28;20030;-68
2021/03/02 06:50:21;;;;;;;9.90;7.93;;;;;;;18.65;25.26;101642.91;5096182;28;20039;-67
2021/03/02 06:52:47;;;;;;;19.45;13.05;;;;;;;18.89;25.35;101640.81;5095119;28;20043;-67
2021/03/02 06:55:16;;;;;;;14.50;11.02;;;;;;;18.43;25.24;101650.28;5095477;28;20035;-68
2021/03/02 06:57:49;;;;;;;9.85;7.05;;;;;;;18.50;26.22;101643.91;5095696;28;20031;-67
2021/03/02 07:00:30;;;;;;;9.68;7.55;;;;;;;18.80;25.50;101653.22;5096174;28;20028;-67
2021/03/02 07:02:55;;;;;;;10.60;6.47;;;;;;;18.75;24.65;101659.19;5113935;28;20056;-67
2021/03/02 07:05:21;;;;;;;7.30;6.30;;;;;;;19.28;25.51;101642.09;5095444;28;20504;-68
2021/03/02 07:07:54;;;;;;;6.88;5.90;;;;;;;19.36;25.23;101646.56;5095694;28;20024;-67
2021/03/02 07:10:21;;;;;;;8.13;5.78;;;;;;;19.74;25.09;101661.47;5095669;28;20062;-68
2021/03/02 07:12:47;;;;;;;6.65;5.78;;;;;;;19.50;24.82;101659.22;5078868;28;20024;-67
2021/03/02 07:15:17;;;;;;;7.57;5.53;;;;;;;19.86;24.67;101664.00;5095348;28;20039;-68
2021/03/02 07:17:47;;;;;;;10.57;5.18;;;;;;;19.40;24.97;101665.56;5113834;28;20020;-67
2021/03/02 07:20:17;;;;;;;8.32;4.88;;;;;;;19.14;25.64;101664.50;5075455;28;20114;-67
2021/03/02 07:22:48;;;;;;;5.82;4.50;;;;;;;19.23;24.96;101665.00;5076062;28;20032;-67
2021/03/02 07:25:17;;;;;;;4.40;3.72;;;;;;;18.83;25.63;101672.16;5092270;28;20139;-67
2021/03/02 07:27:43;;;;;;;9.10;3.63;;;;;;;18.49;26.22;101681.75;5091936;28;20024;-68
2021/03/02 07:30:11;;;;;;;6.35;3.80;;;;;;;18.36;27.19;101666.25;5092617;28;20401;-67
2021/03/02 07:32:39;;;;;;;5.00;4.47;;;;;;;19.00;26.90;101676.41;5092525;28;20458;-67
2021/03/02 07:35:07;;;;;;;5.28;4.78;;;;;;;18.32;26.45;101680.28;5092000;28;20021;-67
2021/03/02 07:37:33;;;;;;;7.20;4.68;;;;;;;17.67;27.94;101681.22;5092174;28;20024;-67
2021/03/02 07:40:07;;;;;;;5.97;4.40;;;;;;;17.74;28.13;101689.84;5091855;28;20489;-67
2021/03/02 07:42:34;;;;;;;6.35;4.97;;;;;;;17.20;30.77;101690.78;5092081;28;20347;-69
2021/03/02 07:45:13;;;;;;;6.38;5.25;;;;;;;17.69;29.52;101684.50;5091852;28;20028;-69
2021/03/02 07:47:53;;;;;;;10.93;5.47;;;;;;;17.31;30.77;101681.75;5093717;28;20028;-69
2021/03/02 07:50:26;;;;;;;5.28;4.78;;;;;;;18.18;30.07;101696.97;5092753;28;20524;-68
2021/03/02 07:53:16;;;;;;;8.20;5.43;;;;;;;17.25;31.26;101700.94;5091643;28;20032;-69
2021/03/02 07:55:46;;;;;;;10.25;5.65;;;;;;;16.85;32.10;101706.94;5091838;28;20027;-69
2021/03/02 07:58:19;;;;;;;6.18;3.88;;;;;;;16.86;33.03;101700.94;5092025;28;20474;-69
2021/03/02 08:00:49;;;;;;;8.90;4.97;;;;;;;16.84;33.84;101705.31;5092206;28;20039;-69
2021/03/02 08:03:23;;;;;;;4.88;4.20;;;;;;;17.06;33.55;101707.41;5094312;28;20474;-69
2021/03/02 08:05:53;;;;;;;5.10;4.55;;;;;;;17.35;32.96;101700.31;5095448;28;20024;-69
2021/03/02 08:08:25;;;;;;;6.80;4.03;;;;;;;16.92;33.42;101671.34;5095336;28;20039;-69
2021/03/02 08:10:52;;;;;;;6.05;5.30;;;;;;;16.90;33.91;101701.03;5095254;28;20046;-69
2021/03/02 08:13:41;;;;;;;4.78;4.07;;;;;;;17.33;33.69;101708.34;5095500;28;20070;-69
2021/03/02 08:16:09;;;;;;;4.53;3.80;;;;;;;17.49;32.95;101709.03;5095586;28;20031;-69
2021/03/02 08:18:42;;;;;;;6.57;3.63;;;;;;;18.36;32.00;101700.88;5096751;28;20024;-69
2021/03/02 08:21:18;;;;;;;;;;;;;;;18.42;31.74;101707.81;5099000;28;20118;-69
2021/03/02 08:23:54;;;;;;;4.65;4.15;;;;;;;19.75;30.24;101711.09;5098735;28;19998;-69
2021/03/02 08:26:19;;;;;;;7.10;4.15;;;;;;;20.42;28.64;101705.19;5098299;28;20061;-66
2021/03/02 08:29:17;;;;;;;6.30;3.80;;;;;;;20.85;27.81;101707.50;5098193;28;20027;-67
2021/03/02 08:31:47;;;;;;;6.13;5.53;;;;;;;20.61;27.13;101708.97;5098874;28;20031;-67
2021/03/02 08:34:15;;;;;;;3.75;3.17;;;;;;;20.84;26.66;101709.50;5098495;28;20059;-68
2021/03/02 08:36:41;;;;;;;36.85;23.52;;;;;;;21.39;26.16;101712.16;5098609;28;20122;-68
2021/03/02 08:39:10;;;;;;;5.93;4.38;;;;;;;20.73;27.01;101708.66;5098187;28;20549;-67
2021/03/02 08:41:38;;;;;;;7.35;4.82;;;;;;;20.81;26.61;101715.94;5098158;28;20038;-67
2021/03/02 08:44:04;;;;;;;6.15;3.70;;;;;;;20.53;26.97;101710.94;5098013;28;20028;-67
2021/03/02 08:46:35;;;;;;;4.50;3.92;;;;;;;20.37;27.63;101714.03;5098345;28;20055;-67
2021/03/02 08:49:10;;;;;;;6.78;4.20;;;;;;;20.93;27.28;101712.78;5098143;28;20027;-67
2021/03/02 08:51:37;;;;;;;7.10;4.20;;;;;;;19.93;27.81;101710.47;5098466;28;20108;-67
2021/03/02 08:54:05;;;;;;;4.32;3.92;;;;;;;19.92;27.89;101709.66;5098095;28;20069;-67
2021/03/02 08:56:31;;;;;;;5.30;4.15;;;;;;;19.33;28.83;101712.28;5097739;28;20038;-67
2021/03/02 08:59:03;;;;;;;6.03;4.60;;;;;;;19.28;29.03;101714.59;5098243;28;20024;-67
2021/03/02 09:01:34;;;;;;;6.45;4.20;;;;;;;20.31;27.92;101714.81;5097689;28;20027;-67
2021/03/02 09:04:16;;;;;;;5.18;4.28;;;;;;;20.26;26.81;101721.63;5097858;28;20060;-67
2021/03/02 09:06:43;;;;;;;7.22;4.88;;;;;;;20.33;27.10;101716.03;5097735;28;20484;-67
2021/03/02 09:09:10;;;;;;;6.38;4.57;;;;;;;19.87;27.45;101713.66;5097890;28;20052;-67
2021/03/02 09:11:39;;;;;;;6.47;5.32;;;;;;;19.63;28.08;101719.88;5097589;28;20462;-66
2021/03/02 09:14:21;;;;;;;6.15;4.22;;;;;;;19.04;29.15;101721.59;5096708;28;20055;-68
2021/03/02 09:16:56;;;;;;;8.57;4.72;;;;;;;19.36;29.10;101722.78;5097371;28;20054;-69
2021/03/02 09:19:41;;;;;;;7.45;4.60;;;;;;;19.37;28.95;101721.56;5094321;28;20525;-67
2021/03/02 09:22:14;;;;;;;6.13;4.38;;;;;;;20.22;27.75;101723.63;5094136;28;20032;-67
2021/03/02 09:24:56;;;;;;;6.40;4.18;;;;;;;20.67;27.43;101721.53;5093923;28;20035;-67
2021/03/02 09:27:29;;;;;;;5.80;4.47;;;;;;;20.25;27.81;101720.03;5093817;28;20027;-66
2021/03/02 09:29:55;;;;;;;5.82;4.40;;;;;;;19.87;28.35;101713.66;5093411;28;20032;-67
2021/03/02 09:32:29;;;;;;;6.35;4.30;;;;;;;20.13;27.52;101720.31;5094257;28;20543;-68
2021/03/02 09:34:57;;;;;;;4.68;4.28;;;;;;;20.70;27.06;101725.59;5093722;28;20032;-67
2021/03/02 09:37:26;;;;;;;5.80;4.63;;;;;;;20.66;26.50;101719.91;5093552;28;20024;-68
2021/03/02 09:39:58;;;;;;;6.63;4.95;;;;;;;20.96;26.71;101733.00;5093493;28;20036;-68
2021/03/02 09:42:29;;;;;;;4.70;3.92;;;;;;;21.59;25.69;101725.97;5094271;28;20100;-68
2021/03/02 09:45:00;;;;;;;5.72;4.50;;;;;;;22.21;25.24;101722.78;5093760;28;20462;-68
2021/03/02 09:47:34;;;;;;;7.45;4.82;;;;;;;21.58;25.37;101719.50;5093414;28;20047;-68
2021/03/02 09:50:03;;;;;;;6.47;4.53;;;;;;;20.70;26.57;101722.75;5093348;28;20036;-69
2021/03/02 09:52:42;;;;;;;6.53;4.60;;;;;;;19.72;27.73;101726.00;5093321;28;20081;-68
2021/03/02 09:55:18;;;;;;;5.47;4.07;;;;;;;19.61;27.96;101722.28;5093002;28;20024;-67
2021/03/02 09:57:56;;;;;;;6.50;4.13;;;;;;;20.52;26.31;101720.63;5093448;28;20475;-68
2021/03/02 10:00:49;;;;;;;7.57;4.30;;;;;;;21.69;24.88;101719.53;5092906;28;20032;-68
2021/03/02 10:03:25;;;;;;;5.18;4.13;;;;;;;22.33;23.60;101702.56;5088637;28;20032;-68
2021/03/02 10:05:59;;;;;;;4.30;3.88;;;;;;;22.90;23.01;101712.94;5093492;28;20067;-68
2021/03/02 10:08:26;;;;;;;8.73;4.47;;;;;;;22.82;22.29;101712.16;5092839;28;20071;-68
2021/03/02 10:10:54;;;;;;;6.75;4.40;;;;;;;22.24;22.19;101707.81;5093565;28;20121;-68
2021/03/02 10:13:25;;;;;;;4.20;3.58;;;;;;;21.08;22.55;101690.19;5093358;28;20042;-68
2021/03/02 10:16:29;;;;;;;5.10;4.60;;;;;;;21.44;22.50;101703.28;5094285;28;20024;-68
2021/03/02 10:19:01;;;;;;;6.43;5.40;;;;;;;22.63;21.94;101693.56;5091936;28;20048;-68
2021/03/02 10:21:49;;;;;;;5.32;4.40;;;;;;;22.29;21.63;101696.06;5092754;28;20025;-68
2021/03/02 10:24:35;;;;;;;4.40;4.00;;;;;;;21.55;22.20;101696.81;5093083;28;20382;-67
2021/03/02 10:27:15;;;;;;;18.67;14.07;;;;;;;20.26;22.98;101713.16;5092885;28;20071;-69
2021/03/02 10:29:42;;;;;;;5.85;4.88;;;;;;;20.38;23.38;101698.69;5093102;28;20131;-67
2021/03/02 10:32:08;;;;;;;7.97;5.63;;;;;;;19.42;24.69;101697.84;5093302;28;20042;-67
2021/03/02 10:34:36;;;;;;;8.00;5.20;;;;;;;20.41;24.16;101702.78;5093405;28;20031;-67
2021/03/02 10:37:05;;;;;;;9.30;5.25;;;;;;;20.31;24.50;101709.16;5093120;28;20134;-67
2021/03/02 10:39:32;;;;;;;6.28;5.18;;;;;;;20.50;24.35;101705.25;5093071;28;20378;-68
2021/03/02 10:41:59;;;;;;;8.30;4.80;;;;;;;20.44;24.43;101701.16;5093080;28;20035;-68
2021/03/02 10:44:25;;;;;;;8.68;5.60;;;;;;;19.73;24.51;101690.94;5092415;28;20024;-69
2021/03/02 10:46:51;;;;;;;7.40;4.65;;;;;;;19.53;24.49;101695.13;5092435;28;20035;-68
2021/03/02 10:49:17;;;;;;;6.00;4.43;;;;;;;19.76;23.97;101687.34;5093736;28;20040;-68
2021/03/02 10:51:42;;;;;;;8.35;4.90;;;;;;;20.92;23.22;101691.34;5092754;28;20114;-68
2021/03/02 10:54:11;;;;;;;6.15;4.32;;;;;;;21.50;23.00;101692.38;5092420;28;20439;-68
2021/03/02 10:56:42;;;;;;;6.95;4.78;;;;;;;22.27;21.94;101681.50;5092367;28;20039;-68
2021/03/02 10:59:08;;;;;;;8.02;5.25;;;;;;;22.40;21.61;101673.34;5092267;28;20027;-68
2021/03/02 11:01:34;;;;;;;4.65;3.92;;;;;;;21.80;21.50;101679.88;5091775;28;20036;-68
2021/03/02 11:04:00;;;;;;;5.53;4.65;;;;;;;22.56;21.28;101681.44;5092156;28;20035;-68
2021/03/02 11:06:28;;;;;;;7.63;4.90;;;;;;;23.02;20.96;101674.81;5092487;28;20036;-68
2021/03/02 11:08:54;;;;;;;4.80;4.30;;;;;;;22.35;20.29;101683.09;5092421;28;20020;-68
2021/03/02 11:11:20;;;;;;;4.82;3.67;;;;;;;21.65;20.26;101684.72;5092237;28;20024;-67
2021/03/02 11:13:50;;;;;;;4.95;3.80;;;;;;;19.87;22.06;101676.94;5093225;28;20069;-68
2021/03/02 11:16:16;;;;;;;6.80;4.03;;;;;;;19.90;22.43;101680.97;5093976;28;20089;-68
2021/03/02 11:18:43;;;;;;;7.07;4.47;;;;;;;20.26;22.20;101684.91;5094712;28;20024;-67
2021/03/02 11:21:12;;;;;;;7.18;3.97;;;;;;;19.65;22.64;101677.94;5096034;28;20036;-68
2021/03/02 11:23:39;;;;;;;6.93;4.63;;;;;;;20.52;22.27;101668.94;5095439;28;20023;-68
2021/03/02 11:26:04;;;;;;;4.93;4.10;;;;;;;21.23;21.05;101663.56;5095534;28;20055;-68
2021/03/02 11:28:30;;;;;;;5.07;3.92;;;;;;;21.19;21.03;101674.88;5095663;28;20453;-69
2021/03/02 11:31:00;;;;;;;4.93;4.05;;;;;;;20.66;20.63;101661.31;5095403;28;20039;-68
2021/03/02 11:33:27;;;;;;;4.75;4.07;;;;;;;20.41;21.40;101666.03;5095478;28;20470;-70
2021/03/02 11:35:59;;;;;;;5.72;4.50;;;;;;;20.37;21.88;101654.69;5095603;28;20057;-68
2021/03/02 11:38:28;;;;;;;3.92;3.63;;;;;;;19.92;22.00;101652.34;5098366;28;20522;-68
2021/03/02 11:40:54;;;;;;;4.97;4.15;;;;;;;20.31;21.84;101661.09;5099786;28;20073;-68